Terminal Aerodrome Forecast
Issued by NWS

Home | Current Version | Previous Version | Text Only | Print | Product List | Glossary On
Versions: 1 2 3 4 5 6 7 8 9 10 11 12 13 14 15 16
000
FTUS45 KTFX 290520
TAFBZN
TAF
KBZN 290520Z 2906/3012 VRB06KT P6SM VCSH SCT080 BKN130
     FM291000 VRB06KT P6SM SCT050 BKN090
     FM291800 31008KT P6SM -SHRA SCT070 BKN100
     FM300100 VRB06KT P6SM SCT070
     FM300600 VRB06KT P6SM SKC=

USA.gov is the U.S. government's official web portal to all federal, state and local government web resources and services.